Aérodrome :
LOGIN :

S'inscrire | Disclaimer

   EN    FR    IT 

 










Légende :    VFR   VFR Marginal   IFR   IFR Intensif   IFR Très Intensif
Visi : 
Plafond : 
>= 8 km
>= 3000ft
5 à 8 km
1000 à 3000 ft
1500m à 5 km
500 à 1000 ft
800 à 1500m
200 à 500 ft
< 800m
< 200 ft
Symboles :   Orages  Brouillard  Fortes neiges  Fortes précipitations  Vent > 20 kt
SIGMETs :   Divers  Orages  Givrage  Turbulence  Onde Orograph.  Cendres Volcan.






- Altitude de l'aérodrome : 74 ft
- Code IATA : MRS


LFML - Marseille / Marignane

DERNIER METAR :
  • 120000Z AUTO 33007KT 9999 BKN036 BKN043 OVC088 06/04 Q1012 NOSIG

METARs EXPIRÉS :
  • 112330Z AUTO 32008KT 9999 FEW038/// BKN045/// BKN054/// ///TCU 06/04 Q1012 BECMG NSC
  • 112300Z AUTO 31010KT 290V360 9999 FEW008 BKN054 OVC086 06/05 Q1012 NOSIG
  • 112230Z AUTO 17003KT 140V260 9999 FEW010 SCT150 05/04 Q1013 BECMG 33010KT
  • 112200Z AUTO 33007KT 310V010 CAVOK 04/03 Q1012 NOSIG
  • 112130Z AUTO 33007KT 310V010 CAVOK 05/04 Q1013 NOSIG

TAF TAF LFML
Valide du 11 à 21h jusqu'au 13 à 03h UTC


112000Z 1121/1303 33010KT CAVOK TX09/1214Z TN04/1206Z
BECMG 1216/1218 09006KT
BECMG 1219/1221 BKN010 BKN030
TEMPO 1221/1224 4000 RA
ATIS : +33 4 42 31 15 15



MET'MAP, la Météo Aéronautique d'un coup d'oeil ! - Copyright ORBIFLY Décembre 2007 - Disclaimer

ORBIFLY MET'MAP TEAM :

Programmation & Développement : Alexandra Zaïnal
Sur une idée originale de : Baudouin d'Aumeries
Assistance à la programmation : Marc-Olivier Méhu
Soutien technique & logistique : Manuel Goepfert

Contact : metmap@orbifly.com




SOURCES & CREDITS :

   NOAA